Time;durP1;ratioP1;P1;durP2;ratioP2;P2;SDS_P1;SDS_P2;PMS_P1;PMS_P2;Temp;Humidity;BMP_temperature;BMP_pressure;BME280_temperature;BME280_humidity;BME280_pressure;Samples;Min_cycle;Max_cycle;Signal;HPM_P1;HPM_P2
2022/09/27 00:00:58;;;;;;;0.13;0.13;;;11.30;99.90;;;;;;4966356;28;20043;-79
2022/09/27 00:03:24;;;;;;;2.67;0.63;;;11.20;99.90;;;;;;4967115;28;21436;-79
2022/09/27 00:06:10;;;;;;;0.45;0.20;;;11.20;99.90;;;;;;4968548;28;20035;-79
2022/09/27 00:08:36;;;;;;;1.17;0.20;;;11.20;99.90;;;;;;4947978;28;20431;-79
2022/09/27 00:11:08;;;;;;;1.63;0.30;;;11.30;99.90;;;;;;4967530;28;20090;-78
2022/09/27 00:13:34;;;;;;;0.30;0.25;;;11.20;99.90;;;;;;4966461;28;20034;-79
2022/09/27 00:16:04;;;;;;;0.47;0.28;;;11.30;99.90;;;;;;4969792;28;20145;-79
2022/09/27 00:18:30;;;;;;;3.33;0.30;;;11.20;99.90;;;;;;4946571;28;20487;-79
2022/09/27 00:21:02;;;;;;;0.20;0.20;;;11.20;99.90;;;;;;4965426;28;20169;-79
2022/09/27 00:23:28;;;;;;;1.50;0.75;;;11.20;99.90;;;;;;4964718;28;20505;-78
2022/09/27 00:25:56;;;;;;;0.57;0.20;;;11.20;99.90;;;;;;4966625;28;20031;-78
2022/09/27 00:28:22;;;;;;;0.68;0.30;;;11.20;99.90;;;;;;4951189;28;20026;-78
2022/09/27 00:30:48;;;;;;;0.30;0.20;;;11.20;99.90;;;;;;4961238;28;20035;-80
2022/09/27 00:33:14;;;;;;;0.30;0.20;;;11.20;99.90;;;;;;4966247;28;20030;-81
2022/09/27 00:35:39;;;;;;;0.32;0.13;;;11.20;99.90;;;;;;4966797;28;20029;-80
2022/09/27 00:38:05;;;;;;;2.22;0.35;;;11.20;99.90;;;;;;4954965;28;20121;-81
2022/09/27 00:40:31;;;;;;;0.73;0.30;;;11.20;99.90;;;;;;4968919;28;20122;-80
2022/09/27 00:42:57;;;;;;;0.50;0.20;;;11.20;99.90;;;;;;4967248;28;20101;-80
2022/09/27 00:45:22;;;;;;;1.85;0.30;;;11.20;99.90;;;;;;4968817;28;20074;-81
2022/09/27 00:48:00;;;;;;;0.45;0.20;;;11.20;99.90;;;;;;4969745;28;20085;-81
2022/09/27 00:50:36;;;;;;;1.35;0.30;;;11.20;99.90;;;;;;4970555;28;20031;-81
2022/09/27 00:53:22;;;;;;;0.80;0.20;;;11.30;99.90;;;;;;4970915;28;20033;-81
2022/09/27 00:55:54;;;;;;;1.00;0.20;;;11.20;99.90;;;;;;4971559;28;20034;-81
2022/09/27 00:58:33;;;;;;;0.22;0.20;;;11.20;99.90;;;;;;4966851;28;20026;-81
2022/09/27 01:01:03;;;;;;;1.58;0.20;;;11.20;99.90;;;;;;4966587;28;20023;-80
2022/09/27 01:03:44;;;;;;;0.28;0.20;;;11.30;99.90;;;;;;4974565;28;20503;-80
2022/09/27 01:06:10;;;;;;;0.47;0.25;;;11.20;99.90;;;;;;4969895;28;20031;-81
2022/09/27 01:08:36;;;;;;;0.20;0.10;;;11.20;99.90;;;;;;4970619;28;20046;-80
2022/09/27 01:11:15;;;;;;;0.70;0.20;;;11.20;99.90;;;;;;4968992;28;20072;-81
2022/09/27 01:14:10;;;;;;;0.30;0.20;;;11.20;99.90;;;;;;4973371;28;20230;-81
2022/09/27 01:16:42;;;;;;;;;;;11.20;99.90;;;;;;4970585;28;20105;-79
2022/09/27 01:19:26;;;;;;;0.25;0.20;;;11.20;99.90;;;;;;4970868;28;20532;-80
2022/09/27 01:21:55;;;;;;;0.40;0.10;;;11.30;99.90;;;;;;4953590;28;20219;-80
2022/09/27 01:24:44;;;;;;;0.45;0.20;;;11.30;99.90;;;;;;4968598;28;20023;-81
2022/09/27 01:27:10;;;;;;;0.65;0.32;;;11.30;99.90;;;;;;4972681;28;20085;-80
2022/09/27 01:29:42;;;;;;;0.20;0.20;;;11.30;99.90;;;;;;4971765;28;20023;-81
2022/09/27 01:32:10;;;;;;;0.80;0.28;;;11.30;99.90;;;;;;4951242;28;20042;-80
2022/09/27 01:34:53;;;;;;;0.30;0.20;;;11.30;99.90;;;;;;4968406;28;20035;-81
2022/09/27 01:37:33;;;;;;;0.32;0.20;;;11.40;99.90;;;;;;4971572;28;20018;-80
2022/09/27 01:40:17;;;;;;;0.40;0.20;;;11.30;99.90;;;;;;4970308;28;20050;-80
2022/09/27 01:42:47;;;;;;;0.20;0.20;;;11.40;99.90;;;;;;4969622;28;20499;-80
2022/09/27 01:45:22;;;;;;;0.82;0.20;;;11.40;99.90;;;;;;4970664;28;20035;-80
2022/09/27 01:47:55;;;;;;;0.40;0.22;;;11.40;99.90;;;;;;4967745;28;20026;-80
2022/09/27 01:50:36;;;;;;;0.35;0.20;;;11.30;99.90;;;;;;4969136;28;20034;-80
2022/09/27 01:53:15;;;;;;;0.20;0.20;;;11.30;99.90;;;;;;4954065;28;20058;-80
2022/09/27 01:55:43;;;;;;;0.30;0.30;;;11.30;99.90;;;;;;4970179;28;20049;-80
2022/09/27 01:58:36;;;;;;;0.93;0.20;;;11.30;99.90;;;;;;4969185;28;20034;-80
2022/09/27 02:01:03;;;;;;;0.52;0.30;;;11.30;99.90;;;;;;4974591;28;20114;-80
2022/09/27 02:03:36;;;;;;;1.33;0.20;;;11.30;99.90;;;;;;4965065;28;20045;-80
2022/09/27 02:06:10;;;;;;;0.52;0.30;;;11.20;99.90;;;;;;4964668;28;20106;-80
2022/09/27 02:08:36;;;;;;;;;;;11.20;99.90;;;;;;4968650;28;20164;-80
2022/09/27 02:11:06;;;;;;;0.10;0.10;;;11.30;99.90;;;;;;4969098;28;20358;-81
2022/09/27 02:13:52;;;;;;;0.85;0.20;;;11.20;99.90;;;;;;4968869;28;20475;-80
2022/09/27 02:16:49;;;;;;;0.32;0.20;;;11.20;99.90;;;;;;5009375;23;20059;-74
2022/09/27 02:19:51;;;;;;;0.52;0.35;;;11.20;99.90;;;;;;5009449;28;20040;-74
2022/09/27 02:22:41;;;;;;;1.25;0.50;;;11.20;99.90;;;;;;5012131;28;20026;-73
2022/09/27 02:25:20;;;;;;;1.13;0.10;;;11.20;99.90;;;;;;5008876;28;20076;-73
2022/09/27 02:28:14;;;;;;;0.35;0.20;;;11.20;99.90;;;;;;4995775;28;20022;-74
2022/09/27 02:30:40;;;;;;;0.73;0.30;;;11.20;99.90;;;;;;4985949;28;20106;-74
2022/09/27 02:33:06;;;;;;;0.55;0.10;;;11.20;99.90;;;;;;4997688;28;20030;-74
2022/09/27 02:35:34;;;;;;;2.28;0.30;;;11.20;99.90;;;;;;4996871;28;20078;-74
2022/09/27 02:38:01;;;;;;;0.82;0.30;;;11.20;99.90;;;;;;4995271;28;20369;-74
2022/09/27 02:40:40;;;;;;;0.20;0.20;;;11.20;99.90;;;;;;5001223;28;20307;-74
2022/09/27 02:43:06;;;;;;;0.95;0.30;;;11.20;99.90;;;;;;4998044;28;20022;-74
2022/09/27 02:46:06;;;;;;;0.75;0.20;;;11.20;99.90;;;;;;4994073;28;20033;-75
2022/09/27 02:48:50;;;;;;;0.40;0.20;;;11.10;99.90;;;;;;4993535;28;20030;-75
2022/09/27 02:51:34;;;;;;;1.10;0.30;;;11.10;99.90;;;;;;4997934;28;20027;-75
2022/09/27 02:54:15;;;;;;;1.73;0.30;;;11.10;99.90;;;;;;4990290;28;20498;-75
2022/09/27 02:57:11;;;;;;;1.20;0.32;;;11.10;99.90;;;;;;5012791;28;20053;-74
2022/09/27 02:59:54;;;;;;;0.40;0.30;;;11.10;99.90;;;;;;4993223;28;20077;-74
2022/09/27 03:02:47;;;;;;;0.43;0.20;;;11.10;99.90;;;;;;5007878;28;20018;-74
2022/09/27 03:05:26;;;;;;;0.40;0.30;;;11.10;99.90;;;;;;5009812;28;20066;-75
2022/09/27 03:07:51;;;;;;;0.73;0.17;;;11.10;99.90;;;;;;4996649;28;20018;-74
2022/09/27 03:10:20;;;;;;;1.25;0.22;;;11.10;99.90;;;;;;4996794;28;20041;-75
2022/09/27 03:12:46;;;;;;;3.72;0.30;;;11.00;99.90;;;;;;4992753;28;20026;-73
2022/09/27 03:15:12;;;;;;;1.15;0.20;;;11.00;99.90;;;;;;4992727;28;20502;-73
2022/09/27 03:17:44;;;;;;;1.23;0.20;;;11.00;99.90;;;;;;4992706;28;20049;-73
2022/09/27 03:20:12;;;;;;;0.55;0.25;;;11.00;99.90;;;;;;4999633;28;20030;-73
2022/09/27 03:22:55;;;;;;;0.85;0.20;;;11.00;99.90;;;;;;5008663;28;20122;-73
2022/09/27 03:25:27;;;;;;;0.68;0.20;;;11.00;99.90;;;;;;5001068;28;20029;-72
2022/09/27 03:27:52;;;;;;;0.85;0.40;;;11.00;99.90;;;;;;5002301;28;20026;-73
2022/09/27 03:30:19;;;;;;;0.52;0.28;;;11.00;99.90;;;;;;4995406;28;20527;-73
2022/09/27 03:32:47;;;;;;;0.75;0.40;;;11.00;99.90;;;;;;4996445;28;20356;-72
2022/09/27 03:35:13;;;;;;;0.47;0.35;;;11.00;99.90;;;;;;4995511;28;20105;-72
2022/09/27 03:37:46;;;;;;;0.75;0.30;;;10.90;99.90;;;;;;5007577;28;20185;-73
2022/09/27 03:40:12;;;;;;;0.20;0.17;;;10.90;99.90;;;;;;5005577;28;20022;-73
2022/09/27 03:42:38;;;;;;;0.93;0.30;;;10.90;99.90;;;;;;4995350;28;20144;-72
2022/09/27 03:45:07;;;;;;;1.73;0.47;;;10.90;99.90;;;;;;4992992;28;20077;-73
2022/09/27 03:47:40;;;;;;;1.55;0.40;;;10.90;99.90;;;;;;4991410;28;20030;-73
2022/09/27 03:50:07;;;;;;;0.80;0.40;;;11.00;99.90;;;;;;4993091;28;20025;-73
2022/09/27 03:52:36;;;;;;;3.75;0.60;;;11.00;99.90;;;;;;5010654;28;20022;-73
2022/09/27 03:55:08;;;;;;;1.80;0.55;;;10.90;99.90;;;;;;4992623;28;20022;-73
2022/09/27 03:57:34;;;;;;;1.95;0.70;;;10.90;99.90;;;;;;4989262;28;20026;-73
2022/09/27 04:00:00;;;;;;;3.40;0.80;;;10.90;99.90;;;;;;4998878;28;20031;-73
2022/09/27 04:02:26;;;;;;;2.50;0.63;;;10.90;99.90;;;;;;4993876;28;20030;-73
2022/09/27 04:04:55;;;;;;;2.97;0.60;;;10.90;99.90;;;;;;4993647;28;20424;-72
2022/09/27 04:07:22;;;;;;;4.15;0.73;;;10.90;99.90;;;;;;4992494;28;20026;-73
2022/09/27 04:09:48;;;;;;;2.63;1.00;;;10.90;99.90;;;;;;5004646;28;24352;-73
2022/09/27 04:12:13;;;;;;;2.15;0.77;;;10.90;99.90;;;;;;5005473;28;20076;-73
2022/09/27 04:14:39;;;;;;;4.30;1.23;;;10.90;99.90;;;;;;4999419;28;20025;-73
2022/09/27 04:17:05;;;;;;;3.05;0.70;;;10.90;99.90;;;;;;4994244;28;20391;-73
2022/09/27 04:19:30;;;;;;;3.90;1.70;;;10.90;99.90;;;;;;4996559;28;20046;-73
2022/09/27 04:22:17;;;;;;;1.67;0.88;;;10.80;99.90;;;;;;5000558;28;20022;-73
2022/09/27 04:24:43;;;;;;;3.90;0.80;;;10.80;99.90;;;;;;4994101;28;20038;-72
2022/09/27 04:27:08;;;;;;;4.38;1.10;;;10.90;99.90;;;;;;4996626;28;20038;-73
2022/09/27 04:29:46;;;;;;;2.67;0.90;;;10.90;99.90;;;;;;4994987;28;20823;-73
2022/09/27 04:32:12;;;;;;;1.40;0.50;;;10.90;99.90;;;;;;4994387;28;20030;-73
2022/09/27 04:37:28;;;;;;;2.10;0.82;;;10.80;99.90;;;;;;4987888;28;20113;-73
2022/09/27 04:40:04;;;;;;;2.80;0.90;;;10.80;99.90;;;;;;4996497;28;20065;-73
2022/09/27 04:42:38;;;;;;;2.10;0.88;;;10.80;99.90;;;;;;4992009;28;20515;-73
2022/09/27 04:45:17;;;;;;;4.35;1.20;;;10.80;99.90;;;;;;4991112;28;20503;-69
2022/09/27 04:47:44;;;;;;;5.32;1.20;;;10.90;99.90;;;;;;4992714;28;20024;-68
2022/09/27 04:50:11;;;;;;;2.80;0.80;;;11.10;99.90;;;;;;4986558;28;20114;-68
2022/09/27 04:52:37;;;;;;;5.00;1.25;;;11.10;99.90;;;;;;4999203;28;20056;-69
2022/09/27 04:55:04;;;;;;;1.83;0.75;;;11.20;99.90;;;;;;4991918;28;20037;-68
2022/09/27 04:57:30;;;;;;;3.65;1.05;;;11.20;99.90;;;;;;4987212;28;20037;-69
2022/09/27 05:00:05;;;;;;;7.68;2.60;;;11.20;99.90;;;;;;4995567;28;20026;-73
2022/09/27 05:02:30;;;;;;;4.47;1.90;;;11.20;99.90;;;;;;5010687;28;20026;-73
2022/09/27 05:04:58;;;;;;;6.65;1.40;;;11.20;99.90;;;;;;4995845;28;20060;-72
2022/09/27 05:07:27;;;;;;;4.15;1.30;;;11.10;99.90;;;;;;4995179;28;20026;-73
2022/09/27 05:09:53;;;;;;;2.70;0.98;;;11.10;99.90;;;;;;4991383;28;20014;-72
2022/09/27 05:12:25;;;;;;;4.32;1.65;;;11.00;99.90;;;;;;4990994;28;20125;-73
2022/09/27 05:14:57;;;;;;;4.35;1.20;;;11.00;99.90;;;;;;4998289;28;20080;-72
2022/09/27 05:17:25;;;;;;;3.38;1.25;;;10.90;99.90;;;;;;4994929;28;20063;-72
2022/09/27 05:19:54;;;;;;;2.35;0.70;;;10.80;99.90;;;;;;4993503;28;20022;-72
2022/09/27 05:22:23;;;;;;;2.67;0.93;;;10.70;99.90;;;;;;4991674;28;20029;-73
2022/09/27 05:24:48;;;;;;;1.83;0.75;;;10.70;99.90;;;;;;4991702;28;20030;-73
2022/09/27 05:27:23;;;;;;;4.32;1.70;;;10.60;99.90;;;;;;4991428;28;20041;-72
2022/09/27 05:29:49;;;;;;;4.88;2.60;;;10.60;99.90;;;;;;5007614;28;20499;-72
2022/09/27 05:32:24;;;;;;;6.10;1.10;;;10.60;99.90;;;;;;4994861;28;20023;-71
2022/09/27 05:34:53;;;;;;;1.00;0.70;;;10.60;99.90;;;;;;4995639;28;20026;-72
2022/09/27 05:37:22;;;;;;;1.98;0.63;;;10.60;99.90;;;;;;5003454;28;20022;-72
2022/09/27 05:39:48;;;;;;;1.88;0.65;;;10.50;99.90;;;;;;4995729;28;20022;-72
2022/09/27 05:42:20;;;;;;;3.33;0.60;;;10.50;99.90;;;;;;4995352;28;20023;-73
2022/09/27 05:44:46;;;;;;;1.13;0.63;;;10.40;99.90;;;;;;4993407;28;20069;-74
2022/09/27 05:47:12;;;;;;;2.67;0.80;;;10.40;99.90;;;;;;4992881;28;20023;-73
2022/09/27 05:49:39;;;;;;;3.25;0.60;;;10.30;99.90;;;;;;4994339;28;20041;-73
2022/09/27 05:52:05;;;;;;;5.47;1.27;;;10.30;99.90;;;;;;4994849;28;20494;-73
2022/09/27 05:54:31;;;;;;;1.73;0.63;;;10.30;99.90;;;;;;5010001;28;20026;-73
2022/09/27 05:56:57;;;;;;;2.70;1.00;;;10.20;99.90;;;;;;4994601;28;20014;-74
2022/09/27 05:59:26;;;;;;;1.92;0.70;;;10.30;99.90;;;;;;4994728;28;20156;-74
2022/09/27 06:01:53;;;;;;;2.47;0.70;;;10.20;99.90;;;;;;4994956;28;20025;-74
2022/09/27 06:04:19;;;;;;;8.65;3.30;;;10.10;99.90;;;;;;5009572;28;20029;-74
2022/09/27 06:06:57;;;;;;;3.50;1.83;;;10.10;99.90;;;;;;4994681;28;20022;-73
2022/09/27 06:09:23;;;;;;;3.17;0.75;;;10.10;99.90;;;;;;5007616;28;20031;-73
2022/09/27 06:11:49;;;;;;;3.78;0.80;;;10.00;99.90;;;;;;5002944;28;20022;-73
2022/09/27 06:14:15;;;;;;;1.70;0.60;;;10.00;99.90;;;;;;5006960;28;20018;-74
2022/09/27 06:16:44;;;;;;;1.17;0.60;;;10.00;99.90;;;;;;5004546;28;20671;-74
2022/09/27 06:19:10;;;;;;;2.88;0.70;;;9.90;99.90;;;;;;5012042;28;20021;-73
2022/09/27 06:21:36;;;;;;;3.47;1.00;;;9.90;99.90;;;;;;4995755;28;20026;-74
2022/09/27 06:24:02;;;;;;;3.60;0.52;;;9.90;99.90;;;;;;4998102;28;20018;-74
2022/09/27 06:26:28;;;;;;;3.80;0.68;;;9.90;99.90;;;;;;4992624;28;20106;-75
2022/09/27 06:28:57;;;;;;;3.25;0.80;;;9.90;99.90;;;;;;4994408;28;20565;-74
2022/09/27 06:31:28;;;;;;;2.88;0.90;;;9.90;99.90;;;;;;4997064;28;20033;-75
2022/09/27 06:34:03;;;;;;;2.88;0.80;;;10.00;99.90;;;;;;4998934;28;20054;-76
2022/09/27 06:36:29;;;;;;;0.80;0.50;;;10.00;99.90;;;;;;4991635;28;20022;-75
2022/09/27 06:38:54;;;;;;;3.08;0.60;;;10.00;99.90;;;;;;4992609;28;20096;-74
2022/09/27 06:41:20;;;;;;;3.97;0.60;;;10.00;99.90;;;;;;4991662;28;20025;-75
2022/09/27 06:43:48;;;;;;;2.65;0.70;;;10.00;99.90;;;;;;5000434;28;20022;-75
2022/09/27 06:46:22;;;;;;;1.42;0.80;;;10.00;99.90;;;;;;4993348;28;20034;-75
2022/09/27 06:48:57;;;;;;;2.13;0.63;;;10.00;99.90;;;;;;4991912;28;20411;-75
2022/09/27 06:51:26;;;;;;;3.50;0.60;;;10.10;99.90;;;;;;4993143;28;20029;-74
2022/09/27 06:53:52;;;;;;;4.20;0.63;;;10.10;99.90;;;;;;4988527;28;20026;-75
2022/09/27 06:56:20;;;;;;;1.80;0.63;;;10.10;99.90;;;;;;4985269;28;20027;-75
2022/09/27 07:01:36;;;;;;;1.42;0.43;;;10.20;99.90;;;;;;4991719;28;20466;-74
2022/09/27 07:04:02;;;;;;;0.90;0.47;;;10.20;99.90;;;;;;5005882;28;20103;-74
2022/09/27 07:06:34;;;;;;;2.35;0.50;;;10.20;99.90;;;;;;4991535;28;20483;-74
2022/09/27 07:09:00;;;;;;;1.80;0.40;;;10.30;99.90;;;;;;4984252;28;25247;-74
2022/09/27 07:11:28;;;;;;;1.20;0.40;;;10.20;99.90;;;;;;4992516;28;20079;-75
2022/09/27 07:13:55;;;;;;;3.10;0.80;;;10.20;99.90;;;;;;4987874;28;20028;-74
2022/09/27 07:16:21;;;;;;;3.55;0.60;;;10.30;99.90;;;;;;4988623;28;20121;-75
2022/09/27 07:18:48;;;;;;;1.98;0.90;;;10.30;99.90;;;;;;4984820;28;20102;-72
2022/09/27 07:21:15;;;;;;;2.15;0.52;;;10.30;99.90;;;;;;5004580;28;20487;-73
2022/09/27 07:23:41;;;;;;;2.22;0.65;;;10.30;99.90;;;;;;4995512;28;20030;-74
2022/09/27 07:26:10;;;;;;;2.05;0.57;;;10.30;99.90;;;;;;4995152;28;20426;-75
2022/09/27 07:28:44;;;;;;;0.77;0.55;;;10.30;99.90;;;;;;4980382;28;20022;-75
2022/09/27 07:31:11;;;;;;;1.17;0.65;;;10.30;99.90;;;;;;4986476;28;20030;-75
2022/09/27 07:33:39;;;;;;;2.67;0.70;;;10.30;99.90;;;;;;4990166;28;23892;-74
2022/09/27 07:36:06;;;;;;;4.20;1.20;;;10.30;99.90;;;;;;4992423;28;20029;-74
2022/09/27 07:38:35;;;;;;;11.50;0.98;;;10.30;99.90;;;;;;4986473;28;20352;-75
2022/09/27 07:41:09;;;;;;;1.70;0.65;;;10.40;99.90;;;;;;4991269;28;20030;-74
2022/09/27 07:43:47;;;;;;;1.50;0.60;;;10.40;99.90;;;;;;4999617;28;20169;-75
2022/09/27 07:46:13;;;;;;;1.80;0.55;;;10.50;99.90;;;;;;5009322;28;20104;-75
2022/09/27 07:48:40;;;;;;;1.40;0.73;;;10.50;99.90;;;;;;4992670;28;20475;-74
2022/09/27 07:51:10;;;;;;;1.80;0.47;;;10.50;99.90;;;;;;4999088;28;20562;-75
2022/09/27 07:53:36;;;;;;;2.17;0.55;;;10.60;99.90;;;;;;4997979;28;20467;-75
2022/09/27 07:56:02;;;;;;;1.75;0.80;;;10.60;99.90;;;;;;4994973;28;20033;-75
2022/09/27 07:58:31;;;;;;;1.00;0.40;;;10.60;99.90;;;;;;4997802;28;20092;-74
2022/09/27 08:01:01;;;;;;;0.85;0.40;;;10.60;99.90;;;;;;5009419;28;20080;-75
2022/09/27 08:03:30;;;;;;;2.42;0.50;;;10.70;99.90;;;;;;4990357;28;20050;-74
2022/09/27 08:06:03;;;;;;;1.30;0.50;;;10.70;99.90;;;;;;5005264;28;20057;-75
2022/09/27 08:08:31;;;;;;;0.93;0.40;;;10.70;99.90;;;;;;4997887;28;20116;-74
2022/09/27 08:10:57;;;;;;;0.63;0.38;;;10.80;99.90;;;;;;4991004;28;20034;-74
2022/09/27 08:13:26;;;;;;;0.90;0.40;;;10.90;99.90;;;;;;4996257;28;20065;-75
2022/09/27 08:15:51;;;;;;;1.20;0.30;;;10.90;99.90;;;;;;4998029;28;20395;-75
2022/09/27 08:18:20;;;;;;;1.33;0.30;;;10.90;99.90;;;;;;5000185;28;20113;-75
2022/09/27 08:20:46;;;;;;;1.52;0.50;;;11.00;99.90;;;;;;5000248;28;20021;-74
2022/09/27 08:23:15;;;;;;;1.17;0.50;;;11.00;99.90;;;;;;4992019;28;20435;-76
2022/09/27 08:25:51;;;;;;;2.78;0.50;;;11.10;99.90;;;;;;4994577;28;20023;-73
2022/09/27 08:28:16;;;;;;;1.38;0.40;;;11.20;99.90;;;;;;4994253;28;20232;-74
2022/09/27 08:30:42;;;;;;;0.77;0.40;;;11.30;99.90;;;;;;4996876;28;20150;-73
2022/09/27 08:33:07;;;;;;;1.40;0.60;;;11.30;99.90;;;;;;5016133;28;20046;-74
2022/09/27 08:35:40;;;;;;;0.90;0.57;;;11.30;99.90;;;;;;4996850;28;20054;-74
2022/09/27 08:38:06;;;;;;;1.13;0.50;;;11.30;99.90;;;;;;5016518;28;20032;-74
2022/09/27 08:41:00;;;;;;;2.00;0.68;;;11.30;99.90;;;;;;5003481;28;20025;-73
2022/09/27 08:43:36;;;;;;;1.15;0.60;;;11.30;99.90;;;;;;4987803;28;20423;-74
2022/09/27 08:46:35;;;;;;;3.30;0.82;;;11.30;99.90;;;;;;4992918;28;20019;-73
2022/09/27 08:49:20;;;;;;;1.70;0.60;;;11.30;99.90;;;;;;4991722;28;20026;-73
2022/09/27 08:51:51;;;;;;;0.63;0.40;;;11.40;99.90;;;;;;4999256;28;20546;-74
2022/09/27 08:54:21;;;;;;;3.83;0.60;;;11.50;99.90;;;;;;4990837;28;20031;-74
2022/09/27 08:57:25;;;;;;;1.90;0.60;;;11.60;99.90;;;;;;4999348;28;20026;-74
2022/09/27 09:00:10;;;;;;;1.23;0.55;;;11.70;99.90;;;;;;4951602;28;20034;-73
2022/09/27 09:02:37;;;;;;;0.93;0.50;;;11.70;99.90;;;;;;4951882;28;20381;-72
2022/09/27 09:05:30;;;;;;;1.70;0.50;;;11.70;99.90;;;;;;4966773;28;20039;-73
2022/09/27 09:08:17;;;;;;;1.42;0.50;;;11.60;99.90;;;;;;4990372;28;20023;-73
2022/09/27 09:13:57;;;;;;;2.88;0.80;;;11.20;99.90;;;;;;4994881;28;20084;-73
2022/09/27 09:16:46;;;;;;;3.70;0.60;;;11.00;99.90;;;;;;4988415;28;20500;-72
2022/09/27 09:19:44;;;;;;;3.28;0.57;;;10.60;99.90;;;;;;4984706;28;20084;-73
2022/09/27 09:22:31;;;;;;;2.03;0.82;;;10.40;99.90;;;;;;5010696;28;20121;-73
2022/09/27 09:25:15;;;;;;;2.72;0.88;;;10.30;99.90;;;;;;4990382;28;20580;-72
2022/09/27 09:27:47;;;;;;;2.15;0.95;;;10.20;99.90;;;;;;5011319;28;20076;-72
2022/09/27 09:30:51;;;;;;;10.45;2.80;;;10.20;99.90;;;;;;5003694;28;20450;-72
2022/09/27 09:33:30;;;;;;;7.40;1.45;;;10.20;99.90;;;;;;4961687;28;20042;-73
2022/09/27 09:36:03;;;;;;;4.43;1.63;;;10.10;99.90;;;;;;4995498;28;20110;-73
2022/09/27 09:38:40;;;;;;;4.78;1.08;;;10.20;99.90;;;;;;4993749;28;20438;-73
2022/09/27 09:41:33;;;;;;;1.08;0.80;;;10.20;99.90;;;;;;5006715;28;20392;-73
2022/09/27 09:44:32;;;;;;;4.90;0.80;;;10.30;99.90;;;;;;4988729;28;20041;-74
2022/09/27 09:47:02;;;;;;;1.05;0.57;;;10.40;99.90;;;;;;4992139;28;20035;-73
2022/09/27 09:49:38;;;;;;;1.10;0.70;;;10.50;99.90;;;;;;4994876;28;20039;-72
2022/09/27 09:52:10;;;;;;;1.20;0.50;;;10.50;99.90;;;;;;4999665;28;20014;-73
2022/09/27 09:54:51;;;;;;;1.75;0.65;;;10.60;99.90;;;;;;5028083;28;20022;-73
2022/09/27 09:57:55;;;;;;;1.02;0.57;;;10.60;99.90;;;;;;4998016;28;20023;-73
2022/09/27 10:00:21;;;;;;;1.17;0.70;;;10.70;99.90;;;;;;4988867;28;20037;-73
2022/09/27 10:02:48;;;;;;;1.85;0.80;;;10.70;99.90;;;;;;4992438;28;20784;-73
2022/09/27 10:05:21;;;;;;;1.95;0.80;;;10.80;99.90;;;;;;4991975;28;20030;-73
2022/09/27 10:07:52;;;;;;;1.40;0.87;;;10.70;99.90;;;;;;4989276;28;20732;-73
2022/09/27 10:10:27;;;;;;;3.70;1.27;;;10.80;99.90;;;;;;4989014;28;20034;-73
2022/09/27 10:12:56;;;;;;;1.17;0.80;;;10.80;99.90;;;;;;4996488;28;20046;-74
2022/09/27 10:15:29;;;;;;;1.85;0.73;;;10.80;99.90;;;;;;5004456;28;20030;-74
2022/09/27 10:17:58;;;;;;;2.55;0.88;;;10.90;99.90;;;;;;5002425;28;20474;-73
2022/09/27 10:21:04;;;;;;;2.35;0.95;;;11.00;99.90;;;;;;5009636;28;20042;-73
2022/09/27 10:23:30;;;;;;;3.78;1.10;;;11.10;99.90;;;;;;4995002;28;20041;-74
2022/09/27 10:26:04;;;;;;;3.13;1.10;;;11.10;99.90;;;;;;4998907;28;20034;-73
2022/09/27 10:28:50;;;;;;;5.32;1.60;;;11.20;99.90;;;;;;4988205;28;20023;-74
2022/09/27 10:31:19;;;;;;;2.00;0.90;;;11.40;99.90;;;;;;4990286;28;20023;-75
2022/09/27 10:34:25;;;;;;;2.97;0.90;;;11.50;99.90;;;;;;4990225;28;20390;-75
2022/09/27 10:37:16;;;;;;;2.58;0.80;;;11.70;99.90;;;;;;4979847;28;20153;-75
2022/09/27 10:39:50;;;;;;;3.70;1.45;;;11.80;99.90;;;;;;4998125;28;20031;-75
2022/09/27 10:42:37;;;;;;;2.20;0.80;;;11.90;99.90;;;;;;4988813;28;20551;-74
2022/09/27 10:45:27;;;;;;;2.40;0.95;;;12.00;99.90;;;;;;4991427;28;20054;-75
2022/09/27 10:47:59;;;;;;;1.77;1.20;;;12.20;99.90;;;;;;4989204;28;20038;-74
2022/09/27 10:50:31;;;;;;;4.53;1.00;;;12.30;99.90;;;;;;4991974;28;20035;-74
2022/09/27 10:53:04;;;;;;;2.83;1.35;;;12.30;99.90;;;;;;4990335;28;20060;-73
2022/09/27 10:55:33;;;;;;;1.63;0.90;;;12.40;99.90;;;;;;4996209;28;20042;-74
2022/09/27 10:58:00;;;;;;;7.05;2.55;;;12.40;99.90;;;;;;4988063;28;20022;-74
2022/09/27 11:00:35;;;;;;;3.30;1.23;;;12.40;99.90;;;;;;4985172;28;20058;-74
2022/09/27 11:03:15;;;;;;;2.88;0.80;;;12.30;99.90;;;;;;5003583;28;20480;-74
2022/09/27 11:05:42;;;;;;;3.17;0.82;;;12.40;99.90;;;;;;4986577;28;20037;-73
2022/09/27 11:08:33;;;;;;;2.30;0.70;;;12.40;99.90;;;;;;4988239;28;20027;-73
2022/09/27 11:11:22;;;;;;;1.05;0.60;;;12.50;99.90;;;;;;5002183;28;20450;-74
2022/09/27 11:14:06;;;;;;;1.27;0.80;;;12.50;99.90;;;;;;4988117;28;20031;-75
2022/09/27 11:17:03;;;;;;;1.95;0.70;;;12.60;99.90;;;;;;5002837;28;20030;-75
2022/09/27 11:19:47;;;;;;;1.88;0.85;;;12.60;99.90;;;;;;4995002;28;20026;-75
2022/09/27 11:22:43;;;;;;;1.55;0.93;;;12.60;99.90;;;;;;5005391;28;20069;-75
2022/09/27 11:25:53;;;;;;;1.42;0.60;;;12.60;99.90;;;;;;4993139;28;20045;-74
2022/09/27 11:29:10;;;;;;;2.15;0.85;;;12.70;99.90;;;;;;4926012;29;20468;-75
2022/09/27 11:32:15;;;;;;;2.85;0.88;;;12.70;99.90;;;;;;4894125;29;20032;-75
2022/09/27 11:34:46;;;;;;;;;;;12.80;99.90;;;;;;4994124;28;20028;-75
2022/09/27 11:37:27;;;;;;;1.00;0.60;;;12.90;99.90;;;;;;4995737;28;19964;-74
2022/09/27 11:40:16;;;;;;;4.20;0.70;;;13.10;99.90;;;;;;4995720;28;20031;-74
2022/09/27 11:43:03;;;;;;;3.20;0.57;;;13.20;99.90;;;;;;4990671;28;20049;-74
2022/09/27 11:45:52;;;;;;;1.33;0.55;;;13.30;99.90;;;;;;4993858;28;20033;-74
2022/09/27 11:48:35;;;;;;;2.80;0.82;;;13.40;99.90;;;;;;4995907;28;20041;-73
2022/09/27 11:51:27;;;;;;;1.65;0.85;;;13.50;99.90;;;;;;4988509;28;20555;-73
2022/09/27 11:54:02;;;;;;;3.13;0.40;;;13.70;99.90;;;;;;4996061;28;20021;-73
2022/09/27 11:56:31;;;;;;;2.22;0.55;;;13.80;99.90;;;;;;4987837;28;20033;-74
2022/09/27 11:59:26;;;;;;;2.25;0.50;;;13.90;99.90;;;;;;4992249;28;20439;-74
2022/09/27 12:02:19;;;;;;;2.53;0.93;;;13.90;99.90;;;;;;4989703;28;20028;-73
2022/09/27 12:05:19;;;;;;;2.20;0.60;;;13.90;99.90;;;;;;4989599;28;20026;-73
2022/09/27 12:08:07;;;;;;;1.05;0.43;;;13.90;99.90;;;;;;4987738;28;20022;-74
2022/09/27 12:10:34;;;;;;;1.58;0.43;;;13.80;99.90;;;;;;4996348;28;20030;-74
2022/09/27 12:13:13;;;;;;;1.23;0.43;;;13.60;99.90;;;;;;4991649;28;20125;-74
2022/09/27 12:15:43;;;;;;;1.08;0.60;;;13.50;99.90;;;;;;4994741;28;20054;-74
2022/09/27 12:18:13;;;;;;;2.63;0.70;;;13.40;99.90;;;;;;5000271;28;20026;-74
2022/09/27 12:20:43;;;;;;;1.63;0.50;;;13.30;99.90;;;;;;5010710;28;20069;-74
2022/09/27 12:23:30;;;;;;;2.25;0.57;;;13.20;99.90;;;;;;4990844;28;20483;-74
2022/09/27 12:26:02;;;;;;;1.77;0.68;;;13.10;99.90;;;;;;4985208;28;20026;-74
2022/09/27 12:28:54;;;;;;;2.05;0.50;;;12.90;99.90;;;;;;4991405;28;20030;-73
2022/09/27 12:31:30;;;;;;;2.25;0.80;;;12.90;99.90;;;;;;4992710;28;20492;-76
2022/09/27 12:34:21;;;;;;;3.75;0.60;;;12.80;99.90;;;;;;4996232;28;20042;-74
2022/09/27 12:37:28;;;;;;;1.27;0.60;;;12.70;99.90;;;;;;4993624;28;20368;-73
2022/09/27 12:40:23;;;;;;;1.92;0.70;;;12.70;99.90;;;;;;4950404;28;20030;-73
2022/09/27 12:43:31;;;;;;;2.53;0.82;;;12.60;99.90;;;;;;4990609;28;20030;-73
2022/09/27 12:46:47;;;;;;;2.17;0.80;;;12.50;99.90;;;;;;4990836;28;20035;-73
2022/09/27 12:49:48;;;;;;;2.55;0.82;;;12.50;99.90;;;;;;4948702;28;20576;-73
2022/09/27 12:52:22;;;;;;;3.00;1.00;;;12.40;99.90;;;;;;4993338;28;20027;-73
2022/09/27 12:54:57;;;;;;;3.95;1.30;;;12.30;99.90;;;;;;4994205;28;20057;-73
2022/09/27 12:58:00;;;;;;;5.07;1.25;;;12.40;99.90;;;;;;4992408;28;20019;-74
2022/09/27 13:00:37;;;;;;;2.45;0.93;;;12.40;99.90;;;;;;4993698;28;20101;-73
2022/09/27 13:03:22;;;;;;;3.63;1.17;;;12.40;99.90;;;;;;5007273;28;20033;-74
2022/09/27 13:06:15;;;;;;;2.40;0.80;;;12.50;99.90;;;;;;4993300;28;20026;-74
2022/09/27 13:09:09;;;;;;;2.83;0.90;;;12.50;99.90;;;;;;4991811;28;20025;-74
2022/09/27 13:11:35;;;;;;;2.05;0.75;;;12.50;99.90;;;;;;4991754;28;20038;-74
2022/09/27 13:14:35;;;;;;;2.22;0.70;;;12.60;99.90;;;;;;4988361;28;20455;-74
2022/09/27 13:17:02;;;;;;;1.52;0.70;;;12.70;99.90;;;;;;4999265;28;20049;-74
2022/09/27 13:19:44;;;;;;;1.80;0.70;;;12.70;99.90;;;;;;4992423;28;20101;-74
2022/09/27 13:22:36;;;;;;;2.17;0.82;;;12.80;99.90;;;;;;4993221;28;20057;-74
2022/09/27 13:25:22;;;;;;;1.55;1.00;;;12.80;99.90;;;;;;5007130;28;20031;-74
2022/09/27 13:27:52;;;;;;;1.58;0.80;;;12.70;99.90;;;;;;4994742;28;20038;-74
2022/09/27 13:30:18;;;;;;;2.63;1.00;;;12.60;99.90;;;;;;4989756;28;20026;-74
2022/09/27 13:33:09;;;;;;;2.72;0.60;;;12.50;99.90;;;;;;5008569;28;20038;-74
2022/09/27 13:35:36;;;;;;;3.58;0.77;;;12.40;99.90;;;;;;4995265;28;20378;-73
2022/09/27 13:38:05;;;;;;;1.45;0.60;;;12.20;99.90;;;;;;4990557;28;20109;-74